Ana Sayfa
METAR-TAF:

METAR-TAF

Havaalanları :

Córdoba, Arjantin

Enlem: 31-19S, Boylam: 064-13W, yükseklik: 484 m

Güncel hava durumu gözlemi

Rapor saat 12:00 UTC de 15 dakika önce yapıldı.
Rüzgar kuzeybatıdan 7 kt
Sıcaklık 17°C
Nem 68%
Basınç 1020 hPa
Görüş mesafesi 10 km veya daha fazla
1500 m altında bulut yok ve kümülonimbus yok

METAR: SACO 171200Z 31007KT CAVOK 17/11 Q1020 NOSIG

Saat: 09:15 (12:15 UTC)

Tahmin

Rapor saat 11:00 UTC de 1 saat ve 15 dakika önce yapıldı.
Ayın 17'si saat 12 UTC'den ayın 18'si saat 12 UTC'ye kadar geçerli Tahmin
Rüzgar kuzeydan 5 kt
Görüş mesafesi 10 km veya daha fazla
1500 m altında bulut yok ve kümülonimbus yok
Dönüşüyor
ayın 18'si saat 00 UTC'den ayın 18'si saat 03 UTC'ye kadar
Rüzgar kuzeybatıdan 5 kt
Görüş mesafesi 10 km veya daha fazla
1500 m altında bulut yok ve kümülonimbus yok

TAF: SACO 171100Z 1712/1812 36005KT CAVOK TX26/1718Z TN11/1810Z BECMG 1800/1803 32005KT CAVOK

4.000'den fazla havaalanı için hava durumu gözlemleri ve tahminleri (METAR ve TAF raporları).

Kullanılabilir istasyonlar harita üzerinde sarı ve kırmızı noktalarla gösterilir.

İstasyonun adını görmek için fareyi noktanın üzerinde gezdirin.

Sonrasında hava gözlem ve tahminlerini görmek için tıklayın.

Haritayı değiştirmek için: yaklaştırmak için siyah artı işaretli yeşil düğmeye ve uzaklaştırmak için de eksi işaretli düğmeye hızla tıklayın; bitişik haritalar için yeşil okları kullanın.


METAR-TAF: